createdAt,value
2023-04-29T00:01:49.758Z,56.66
2023-04-29T00:04:18.232Z,56.37
2023-04-29T00:06:47.926Z,56.60
2023-04-29T00:09:16.306Z,56.51
2023-04-29T00:11:44.538Z,56.83
2023-04-29T00:14:12.550Z,56.86
2023-04-29T00:16:40.888Z,56.79
2023-04-29T00:19:08.834Z,57.03
2023-04-29T00:21:37.278Z,57.10
2023-04-29T00:24:08.308Z,57.36
2023-04-29T00:26:37.360Z,57.52
2023-04-29T00:29:05.467Z,57.42
2023-04-29T00:31:34.460Z,57.22
2023-04-29T00:34:02.694Z,57.19
2023-04-29T00:36:33.069Z,57.36
2023-04-29T00:39:01.146Z,57.56
2023-04-29T00:41:29.434Z,57.41
2023-04-29T00:43:57.491Z,57.53
2023-04-29T00:46:25.576Z,57.56
2023-04-29T00:48:53.830Z,57.50
2023-04-29T00:51:21.844Z,57.66
2023-04-29T00:53:50.081Z,57.65
2023-04-29T00:56:21.620Z,57.69
2023-04-29T00:58:53.178Z,57.53
2023-04-29T01:01:22.119Z,57.74
2023-04-29T01:03:51.385Z,57.73
2023-04-29T01:06:38.895Z,57.92
2023-04-29T01:09:31.947Z,57.96
2023-04-29T01:12:23.587Z,57.84
2023-04-29T01:15:07.214Z,58.01
2023-04-29T01:17:41.518Z,58.20
2023-04-29T01:20:10.839Z,58.18
2023-04-29T01:22:39.511Z,58.28
2023-04-29T01:25:10.658Z,58.32
2023-04-29T01:28:35.043Z,58.43
2023-04-29T01:32:19.211Z,58.28
2023-04-29T01:35:01.108Z,58.51
2023-04-29T01:37:53.432Z,58.72
2023-04-29T01:40:24.376Z,58.58
2023-04-29T01:43:12.406Z,58.74
2023-04-29T01:45:45.490Z,58.83
2023-04-29T01:48:14.388Z,58.82
2023-04-29T01:50:43.276Z,58.78
2023-04-29T01:53:16.467Z,59.00
2023-04-29T01:55:45.459Z,59.13
2023-04-29T01:59:31.794Z,58.83
2023-04-29T02:02:22.214Z,59.07
2023-04-29T02:05:00.054Z,59.02
2023-04-29T02:07:28.941Z,59.12
2023-04-29T02:09:57.551Z,59.08
2023-04-29T02:12:26.013Z,59.25
2023-04-29T02:14:54.486Z,59.01
2023-04-29T02:17:23.123Z,58.99
2023-04-29T02:19:51.723Z,59.14
2023-04-29T02:22:20.036Z,59.21
2023-04-29T02:24:48.413Z,59.51
2023-04-29T02:27:20.894Z,59.73
2023-04-29T02:29:51.932Z,59.75
2023-04-29T02:32:21.342Z,59.67
2023-04-29T02:34:49.666Z,59.74
2023-04-29T02:37:17.896Z,59.93
2023-04-29T02:39:49.339Z,59.88
2023-04-29T02:42:17.405Z,60.19
2023-04-29T02:44:45.687Z,60.03
2023-04-29T02:47:15.903Z,60.02
2023-04-29T02:49:43.973Z,60.15
2023-04-29T02:52:14.710Z,60.28
2023-04-29T02:54:44.017Z,60.22
2023-04-29T02:57:12.508Z,60.07
2023-04-29T02:59:41.060Z,60.21
2023-04-29T03:02:09.392Z,60.15
2023-04-29T03:04:37.725Z,60.14
2023-04-29T03:07:05.896Z,60.32
2023-04-29T03:09:34.504Z,60.32
2023-04-29T03:12:03.366Z,60.28
2023-04-29T03:14:31.846Z,60.31
2023-04-29T03:16:59.976Z,60.18
2023-04-29T03:19:28.507Z,60.18
2023-04-29T03:21:56.879Z,60.29
2023-04-29T03:24:25.015Z,60.16
2023-04-29T03:26:55.472Z,60.09
2023-04-29T03:29:23.439Z,60.01
2023-04-29T03:31:52.107Z,59.53
2023-04-29T03:34:20.909Z,59.04
2023-04-29T03:36:54.528Z,58.35
2023-04-29T03:39:23.811Z,57.68
2023-04-29T03:41:52.291Z,56.90
2023-04-29T03:44:20.309Z,56.05
2023-04-29T03:46:48.333Z,54.91
2023-04-29T03:49:16.393Z,53.95
2023-04-29T03:51:45.900Z,53.28
2023-04-29T03:54:17.043Z,51.92
2023-04-29T03:56:46.450Z,51.03
2023-04-29T03:59:14.524Z,50.05
2023-04-29T04:01:42.816Z,49.03
2023-04-29T04:04:11.361Z,48.14
2023-04-29T04:06:41.591Z,47.48
2023-04-29T04:09:09.871Z,46.96
2023-04-29T04:11:40.301Z,45.70
2023-04-29T04:14:08.679Z,44.58
2023-04-29T04:16:37.795Z,44.24
2023-04-29T04:19:06.555Z,43.11
2023-04-29T04:21:36.574Z,42.09
2023-04-29T04:24:07.713Z,41.80
2023-04-29T04:26:35.895Z,40.87
2023-04-29T04:29:19.874Z,39.89
2023-04-29T04:32:05.318Z,39.99
2023-04-29T04:34:34.228Z,38.82
2023-04-29T04:37:02.782Z,37.71
2023-04-29T04:39:31.686Z,37.27
2023-04-29T04:42:00.170Z,36.76
2023-04-29T04:44:28.538Z,35.54
2023-04-29T04:47:05.924Z,35.32
2023-04-29T04:49:50.654Z,34.51
2023-04-29T04:52:22.773Z,33.55
2023-04-29T04:55:01.963Z,32.96
2023-04-29T04:57:31.291Z,32.59
2023-04-29T05:00:04.988Z,32.67
2023-04-29T05:05:43.635Z,30.86
2023-04-29T05:08:15.182Z,30.45
2023-04-29T05:10:45.910Z,29.93
2023-04-29T05:13:14.428Z,30.42
2023-04-29T05:15:43.993Z,29.16
2023-04-29T05:18:12.388Z,29.22
2023-04-29T05:20:41.975Z,28.33
2023-04-29T05:23:10.460Z,27.71
2023-04-29T05:25:41.087Z,27.40
2023-04-29T05:28:09.192Z,26.91
2023-04-29T05:30:38.907Z,26.28
2023-04-29T05:33:07.452Z,25.97
2023-04-29T05:35:35.934Z,25.85
2023-04-29T05:38:04.160Z,25.40
2023-04-29T05:40:45.383Z,25.46
2023-04-29T05:43:36.915Z,25.59
2023-04-29T05:46:06.821Z,25.29
2023-04-29T05:48:35.105Z,25.40
2023-04-29T05:51:03.884Z,24.99
2023-04-29T05:53:33.592Z,24.94
2023-04-29T05:56:05.354Z,24.78
2023-04-29T05:58:35.265Z,24.24
2023-04-29T06:01:03.949Z,24.69
2023-04-29T06:03:33.007Z,23.87
2023-04-29T06:06:27.357Z,23.58
2023-04-29T06:09:27.668Z,22.24
2023-04-29T06:12:03.823Z,22.79
2023-04-29T06:14:32.092Z,23.00
2023-04-29T06:17:00.264Z,22.86
2023-04-29T06:19:30.178Z,22.79
2023-04-29T06:21:59.993Z,22.34
2023-04-29T06:24:28.985Z,22.10
2023-04-29T06:26:58.692Z,21.75
2023-04-29T06:29:31.059Z,20.70
2023-04-29T06:32:00.043Z,20.23
2023-04-29T06:34:29.156Z,20.19
2023-04-29T06:37:15.960Z,20.33
2023-04-29T06:40:02.670Z,20.61
2023-04-29T06:43:02.377Z,20.70
2023-04-29T06:45:48.060Z,19.96
2023-04-29T06:48:23.200Z,20.37
2023-04-29T06:50:56.909Z,20.64
2023-04-29T06:54:16.072Z,20.47
2023-04-29T06:56:44.446Z,20.06
2023-04-29T06:59:12.934Z,19.60
2023-04-29T07:01:44.041Z,19.64
2023-04-29T07:04:14.996Z,20.02
2023-04-29T07:06:48.299Z,20.17
2023-04-29T07:09:16.578Z,21.07
2023-04-29T07:11:44.555Z,21.33
2023-04-29T07:14:13.329Z,21.31
2023-04-29T07:16:41.244Z,21.67
2023-04-29T07:19:12.761Z,21.66
2023-04-29T07:21:40.832Z,21.90
2023-04-29T07:24:09.199Z,21.71
2023-04-29T07:26:37.168Z,22.73
2023-04-29T07:29:05.348Z,22.46
2023-04-29T07:31:34.361Z,23.03
2023-04-29T07:34:06.501Z,23.04
2023-04-29T07:36:34.721Z,24.04
2023-04-29T07:39:03.362Z,24.47
2023-04-29T07:41:34.088Z,23.89
2023-04-29T07:44:02.772Z,24.04
2023-04-29T07:46:31.800Z,25.44
2023-04-29T07:49:00.028Z,25.35
2023-04-29T07:51:29.327Z,24.65
2023-04-29T07:53:57.412Z,25.03
2023-04-29T07:56:26.365Z,25.91
2023-04-29T07:58:55.357Z,25.52
2023-04-29T08:01:23.569Z,25.98
2023-04-29T08:03:51.710Z,26.53
2023-04-29T08:06:22.458Z,25.77
2023-04-29T08:08:52.800Z,26.17
2023-04-29T08:11:22.510Z,26.21
2023-04-29T08:13:50.887Z,25.74
2023-04-29T08:16:19.293Z,26.29
2023-04-29T08:18:48.357Z,26.41
2023-04-29T08:21:16.539Z,26.01
2023-04-29T08:24:35.597Z,26.13
2023-04-29T08:27:04.490Z,27.23
2023-04-29T08:29:35.628Z,27.08
2023-04-29T08:32:03.820Z,27.17
2023-04-29T08:37:41.042Z,27.91
2023-04-29T08:40:10.132Z,27.80
2023-04-29T08:42:38.174Z,27.81
2023-04-29T08:45:07.587Z,27.73
2023-04-29T08:47:36.418Z,28.12
2023-04-29T08:50:06.288Z,27.94
2023-04-29T08:52:34.862Z,27.74
2023-04-29T08:55:03.537Z,28.52
2023-04-29T08:57:33.129Z,29.24
2023-04-29T09:00:02.616Z,28.64
2023-04-29T09:02:35.705Z,28.76
2023-04-29T09:05:11.486Z,29.03
2023-04-29T09:07:40.242Z,29.37
2023-04-29T09:10:09.893Z,29.00
2023-04-29T09:12:38.069Z,29.34
2023-04-29T09:15:09.298Z,29.21
2023-04-29T09:17:45.581Z,29.75
2023-04-29T09:20:20.086Z,29.54
2023-04-29T09:22:56.969Z,29.79
2023-04-29T09:25:25.144Z,30.07
2023-04-29T09:27:54.345Z,29.38
2023-04-29T09:30:23.363Z,29.43
2023-04-29T09:33:20.720Z,29.37
2023-04-29T09:35:49.071Z,30.14
2023-04-29T09:38:20.106Z,29.42
2023-04-29T09:40:58.788Z,29.81
2023-04-29T09:43:28.241Z,30.28
2023-04-29T09:45:56.533Z,29.30
2023-04-29T09:48:24.608Z,28.80
2023-04-29T09:51:02.460Z,29.45
2023-04-29T09:53:31.801Z,29.47
2023-04-29T09:56:03.328Z,29.00
2023-04-29T09:58:40.647Z,29.31
2023-04-29T10:01:08.817Z,29.10
2023-04-29T10:03:39.015Z,29.52
2023-04-29T10:06:07.902Z,29.26
2023-04-29T10:08:37.241Z,29.26
2023-04-29T10:11:31.106Z,29.46
2023-04-29T10:13:59.580Z,29.54
2023-04-29T10:16:27.530Z,29.22
2023-04-29T10:18:57.153Z,29.55
2023-04-29T10:21:32.779Z,29.88
2023-04-29T10:24:02.892Z,29.53
2023-04-29T10:26:32.251Z,29.26
2023-04-29T10:29:05.596Z,28.49
2023-04-29T10:31:33.979Z,29.48
2023-04-29T10:34:02.300Z,29.08
2023-04-29T10:36:33.710Z,29.59
2023-04-29T10:39:03.956Z,29.89
2023-04-29T10:41:38.433Z,30.21
2023-04-29T10:44:56.575Z,30.33
2023-04-29T10:47:25.382Z,30.07
2023-04-29T10:50:05.240Z,30.15
2023-04-29T10:52:52.343Z,30.34
2023-04-29T10:55:20.252Z,30.49
2023-04-29T10:57:48.472Z,30.19
2023-04-29T11:00:38.964Z,30.16
2023-04-29T11:03:07.790Z,30.55
2023-04-29T11:05:37.266Z,30.15
2023-04-29T11:08:17.126Z,30.19
2023-04-29T11:10:45.488Z,29.94
2023-04-29T11:13:23.813Z,29.12
2023-04-29T11:15:55.244Z,29.15
2023-04-29T11:18:23.729Z,28.53
2023-04-29T11:21:07.266Z,28.98
2023-04-29T11:23:37.170Z,29.04
2023-04-29T11:26:58.373Z,28.99
2023-04-29T11:29:27.496Z,29.37
2023-04-29T11:32:00.941Z,28.69
2023-04-29T11:34:29.669Z,28.57
2023-04-29T11:36:57.751Z,28.42
2023-04-29T11:39:30.110Z,28.35
2023-04-29T11:42:07.508Z,28.55
2023-04-29T11:44:36.298Z,28.39
2023-04-29T11:47:09.176Z,28.78
2023-04-29T11:49:40.107Z,29.27
2023-04-29T11:52:08.331Z,29.30
2023-04-29T11:54:36.613Z,29.31
2023-04-29T11:57:05.349Z,29.55
2023-04-29T12:00:00.566Z,29.32
2023-04-29T12:02:33.279Z,30.35
2023-04-29T12:05:04.506Z,31.04
2023-04-29T12:07:32.646Z,30.83
2023-04-29T12:10:00.923Z,30.61
2023-04-29T12:12:30.836Z,30.53
2023-04-29T12:14:59.533Z,30.75
2023-04-29T12:17:27.525Z,31.12
2023-04-29T12:19:55.573Z,31.47
2023-04-29T12:22:24.349Z,31.93
2023-04-29T12:24:56.326Z,31.38
2023-04-29T12:27:28.170Z,31.60
2023-04-29T12:29:59.124Z,32.32
2023-04-29T12:32:29.573Z,32.25
2023-04-29T12:34:58.421Z,32.53
2023-04-29T12:37:26.903Z,32.35
2023-04-29T12:39:55.537Z,32.26
2023-04-29T12:42:23.553Z,32.23
2023-04-29T12:44:51.566Z,32.56
2023-04-29T12:47:22.059Z,32.65
2023-04-29T12:54:33.369Z,32.95
2023-04-29T12:57:06.874Z,33.05
2023-04-29T12:59:35.542Z,32.12
2023-04-29T13:02:03.788Z,32.28
2023-04-29T13:04:32.506Z,32.98
2023-04-29T13:07:06.121Z,32.90
2023-04-29T13:09:38.489Z,33.29
2023-04-29T13:12:10.436Z,32.90
2023-04-29T13:14:38.678Z,32.84
2023-04-29T13:17:07.232Z,32.88
2023-04-29T13:19:50.153Z,32.38
2023-04-29T13:22:20.743Z,32.56
2023-04-29T13:24:48.813Z,32.86
2023-04-29T13:27:16.865Z,32.66
2023-04-29T13:29:45.874Z,32.48
2023-04-29T13:32:14.084Z,32.47
2023-04-29T13:34:43.761Z,32.79
2023-04-29T13:37:12.118Z,33.35
2023-04-29T13:39:40.169Z,33.20
2023-04-29T13:42:09.077Z,33.49
2023-04-29T13:45:04.329Z,33.93
2023-04-29T13:47:29.081Z,33.68
2023-04-29T13:50:36.572Z,33.20
2023-04-29T13:53:10.478Z,32.97
2023-04-29T14:04:01.512Z,32.83
2023-04-29T14:06:32.098Z,33.55
2023-04-29T14:09:02.237Z,33.85
2023-04-29T14:11:38.167Z,33.41
2023-04-29T14:14:06.548Z,33.53
2023-04-29T14:16:34.814Z,33.45
2023-04-29T14:19:05.552Z,33.45
2023-04-29T14:21:33.942Z,33.47
2023-04-29T14:28:43.508Z,33.07
2023-04-29T14:31:14.016Z,33.76
2023-04-29T14:33:42.709Z,34.43
2023-04-29T14:36:10.888Z,33.63
2023-04-29T14:38:39.090Z,33.84
2023-04-29T14:41:07.435Z,34.30
2023-04-29T14:43:39.498Z,34.75
2023-04-29T14:46:09.803Z,34.90
2023-04-29T14:48:38.612Z,34.71
2023-04-29T14:51:07.610Z,34.59
2023-04-29T14:53:35.782Z,34.84
2023-04-29T14:56:04.364Z,34.95
2023-04-29T14:58:32.348Z,34.40
2023-04-29T15:01:00.997Z,34.58
2023-04-29T15:03:28.970Z,35.00
2023-04-29T15:05:58.232Z,34.62
2023-04-29T15:09:16.967Z,34.51
2023-04-29T15:11:44.892Z,34.61
2023-04-29T15:14:12.969Z,34.83
2023-04-29T15:16:41.802Z,34.83
2023-04-29T15:19:09.837Z,34.74
2023-04-29T15:22:06.552Z,34.95
2023-04-29T15:24:34.748Z,35.33
2023-04-29T15:27:04.360Z,35.44
2023-04-29T15:29:34.542Z,35.46
2023-04-29T15:32:02.795Z,35.73
2023-04-29T15:34:33.265Z,35.63
2023-04-29T15:37:01.441Z,35.76
2023-04-29T15:39:29.522Z,35.93
2023-04-29T15:41:59.165Z,36.23
2023-04-29T15:44:27.290Z,36.15
2023-04-29T15:46:56.390Z,36.37
2023-04-29T15:49:25.981Z,36.46
2023-04-29T15:52:19.078Z,36.65
2023-04-29T15:54:47.228Z,37.12
2023-04-29T15:57:16.225Z,37.28
2023-04-29T15:59:44.393Z,37.17
2023-04-29T16:02:12.574Z,37.24
2023-04-29T16:04:40.840Z,37.33
2023-04-29T16:07:09.001Z,37.33
2023-04-29T16:09:37.187Z,37.05
2023-04-29T16:12:05.887Z,37.54
2023-04-29T16:14:33.966Z,38.11
2023-04-29T16:17:02.236Z,38.08
2023-04-29T16:19:31.933Z,38.18
2023-04-29T16:22:00.612Z,38.35
2023-04-29T16:24:28.686Z,38.56
2023-04-29T16:26:57.264Z,39.00
2023-04-29T16:29:25.552Z,38.59
2023-04-29T16:31:53.726Z,38.60
2023-04-29T16:34:22.204Z,38.77
2023-04-29T16:36:50.360Z,38.99
2023-04-29T16:39:18.539Z,39.07
2023-04-29T16:41:47.333Z,39.27
2023-04-29T16:44:15.235Z,39.68
2023-04-29T16:46:48.178Z,39.67
2023-04-29T16:49:16.355Z,39.65
2023-04-29T16:51:45.074Z,39.98
2023-04-29T16:54:13.722Z,40.56
2023-04-29T16:56:41.791Z,40.79
2023-04-29T16:59:12.641Z,41.06
2023-04-29T17:01:40.963Z,41.26
2023-04-29T17:04:09.509Z,41.39
2023-04-29T17:06:38.105Z,41.78
2023-04-29T17:09:07.380Z,41.96
2023-04-29T17:11:37.489Z,42.00
2023-04-29T17:14:05.462Z,41.93
2023-04-29T17:16:33.810Z,42.17
2023-04-29T17:19:02.501Z,42.21
2023-04-29T17:21:34.811Z,42.40
2023-04-29T17:24:03.379Z,42.85
2023-04-29T17:26:33.865Z,43.28
2023-04-29T17:29:02.280Z,43.49
2023-04-29T17:31:45.873Z,43.92
2023-04-29T17:34:26.582Z,44.29
2023-04-29T17:36:55.365Z,44.85
2023-04-29T17:39:23.561Z,45.13
2023-04-29T17:41:52.116Z,45.58
2023-04-29T17:44:22.583Z,45.86
2023-04-29T17:46:51.527Z,46.13
2023-04-29T17:49:21.356Z,46.33
2023-04-29T17:51:49.933Z,46.31
2023-04-29T17:54:17.837Z,46.46
2023-04-29T17:57:12.188Z,46.51
2023-04-29T17:59:40.905Z,46.62
2023-04-29T18:02:08.989Z,47.03
2023-04-29T18:04:37.648Z,47.06
2023-04-29T18:07:05.698Z,47.69
2023-04-29T18:09:35.310Z,47.60
2023-04-29T18:12:03.988Z,47.74
2023-04-29T18:14:33.398Z,47.94
2023-04-29T18:17:01.614Z,48.01
2023-04-29T18:19:29.941Z,47.88
2023-04-29T18:22:24.339Z,48.09
2023-04-29T18:24:53.118Z,47.88
2023-04-29T18:27:22.724Z,47.98
2023-04-29T18:29:51.505Z,48.58
2023-04-29T18:32:20.506Z,48.93
2023-04-29T18:34:48.816Z,49.51
2023-04-29T18:37:17.158Z,49.69
2023-04-29T18:39:45.126Z,50.68
2023-04-29T18:42:13.187Z,51.57
2023-04-29T18:44:41.274Z,51.58
2023-04-29T18:47:09.340Z,51.49
2023-04-29T18:49:38.442Z,51.70
2023-04-29T18:52:06.910Z,51.29
2023-04-29T18:54:34.980Z,51.24
2023-04-29T18:57:06.865Z,51.78
2023-04-29T18:59:38.386Z,51.96
2023-04-29T19:02:06.821Z,52.21
2023-04-29T19:04:35.686Z,52.11
2023-04-29T19:07:06.501Z,52.00
2023-04-29T19:09:35.752Z,52.90
2023-04-29T19:12:07.853Z,53.52
2023-04-29T19:14:55.723Z,54.00
2023-04-29T19:17:24.512Z,54.10
2023-04-29T19:19:53.467Z,54.39
2023-04-29T19:22:22.258Z,54.78
2023-04-29T19:24:50.222Z,54.79
2023-04-29T19:27:18.294Z,55.17
2023-04-29T19:29:50.360Z,55.22
2023-04-29T19:32:20.371Z,54.90
2023-04-29T19:34:48.341Z,54.76
2023-04-29T19:37:16.406Z,54.65
2023-04-29T19:39:44.588Z,54.86
2023-04-29T19:42:12.678Z,54.87
2023-04-29T19:44:41.007Z,55.09
2023-04-29T19:47:11.389Z,54.98
2023-04-29T19:49:39.600Z,55.01
2023-04-29T19:52:07.721Z,55.11
2023-04-29T19:54:35.987Z,55.19
2023-04-29T19:57:04.053Z,55.19
2023-04-29T19:59:32.046Z,54.92
2023-04-29T20:02:00.160Z,55.19
2023-04-29T20:04:28.367Z,55.22
2023-04-29T20:06:56.547Z,54.89
2023-04-29T20:09:24.719Z,54.94
2023-04-29T20:11:52.784Z,54.84
2023-04-29T20:14:21.472Z,54.84
2023-04-29T20:16:50.181Z,55.19
2023-04-29T20:19:18.438Z,55.05
2023-04-29T20:21:46.499Z,54.93
2023-04-29T20:24:14.466Z,55.01
2023-04-29T20:26:43.349Z,54.97
2023-04-29T20:29:11.676Z,54.81
2023-04-29T20:31:40.446Z,55.49
2023-04-29T20:34:08.907Z,55.27
2023-04-29T20:36:38.810Z,55.34
2023-04-29T20:43:45.830Z,55.41
2023-04-29T20:46:14.039Z,55.73
2023-04-29T20:48:42.995Z,56.04
2023-04-29T20:51:12.703Z,57.05
2023-04-29T20:53:41.379Z,57.49
2023-04-29T20:56:11.919Z,57.77
2023-04-29T20:58:40.090Z,57.59
2023-04-29T21:01:08.609Z,57.92
2023-04-29T21:03:37.997Z,57.86
2023-04-29T21:06:06.164Z,57.89
2023-04-29T21:08:34.324Z,58.44
2023-04-29T21:11:02.390Z,58.29
2023-04-29T21:13:31.480Z,58.28
2023-04-29T21:16:00.335Z,58.22
2023-04-29T21:18:28.687Z,58.02
2023-04-29T21:21:17.125Z,58.42
2023-04-29T21:23:45.366Z,58.61
2023-04-29T21:26:15.383Z,58.76
2023-04-29T21:28:43.491Z,59.03
2023-04-29T21:31:16.602Z,59.15
2023-04-29T21:33:47.924Z,59.64
2023-04-29T21:36:16.202Z,59.33
2023-04-29T21:38:44.494Z,59.45
2023-04-29T21:41:21.723Z,59.78
2023-04-29T21:43:50.838Z,59.94
2023-04-29T21:46:19.022Z,60.13
2023-04-29T21:48:47.187Z,59.86
2023-04-29T21:51:15.299Z,60.20
2023-04-29T21:53:43.717Z,60.15
2023-04-29T21:56:11.994Z,60.30
2023-04-29T21:58:41.008Z,60.68
2023-04-29T22:01:40.694Z,60.73
2023-04-29T22:04:08.976Z,61.01
2023-04-29T22:06:37.302Z,61.14
2023-04-29T22:09:05.610Z,61.29
2023-04-29T22:11:33.907Z,61.51
2023-04-29T22:14:02.179Z,61.48
2023-04-29T22:16:30.424Z,61.08
2023-04-29T22:18:59.701Z,61.09
2023-04-29T22:21:32.223Z,61.09
2023-04-29T22:24:00.108Z,61.36
2023-04-29T22:26:28.186Z,61.87
2023-04-29T22:28:57.155Z,62.39
2023-04-29T22:31:25.569Z,62.44
2023-04-29T22:33:54.118Z,62.38
2023-04-29T22:36:22.198Z,62.37
2023-04-29T22:38:50.260Z,62.49
2023-04-29T22:41:47.409Z,62.44
2023-04-29T22:44:16.410Z,62.33
2023-04-29T22:46:44.682Z,62.42
2023-04-29T22:49:12.875Z,62.40
2023-04-29T22:51:42.561Z,62.23
2023-04-29T22:54:10.935Z,62.43
2023-04-29T22:56:39.109Z,62.46
2023-04-29T23:03:43.968Z,62.89
2023-04-29T23:06:12.200Z,62.81
2023-04-29T23:08:40.416Z,62.94
2023-04-29T23:11:08.595Z,62.93
2023-04-29T23:13:37.069Z,63.07
2023-04-29T23:16:06.684Z,63.01
2023-04-29T23:18:37.511Z,62.90
2023-04-29T23:21:05.789Z,62.78
2023-04-29T23:23:34.063Z,62.98
2023-04-29T23:26:02.131Z,63.02
2023-04-29T23:28:30.314Z,63.13
2023-04-29T23:30:58.707Z,63.46
2023-04-29T23:33:26.629Z,63.60
2023-04-29T23:35:55.949Z,63.51
2023-04-29T23:38:24.019Z,63.36
2023-04-29T23:40:52.508Z,63.42
2023-04-29T23:43:21.809Z,63.55
2023-04-29T23:45:50.395Z,63.45
2023-04-29T23:48:18.771Z,63.59
2023-04-29T23:50:47.444Z,63.42
2023-04-29T23:53:15.966Z,63.47
2023-04-29T23:55:44.003Z,63.36
2023-04-29T23:58:12.685Z,63.34
